X  Schlie├čen Metar Luftfahrt Wetterdaten     EBBR Brussels Airport
Temperatur
2°C Temperatur
-2°C Taupunkt
75% Feuchtigkeit



Wind
5 KM/H
3 MPH
1 M/S
3 KTS



30°
NNO
Aktuelle Wetterlage

Klar Klar
Luftdruck 1028.92 (hPa) - 30.38 (inHg)
Sichtweite 6.2 (Meile) - 10 (km)
Flughafen
Flughafen Code EBBR

Position : Brussels Airport
Entfernung: 14 (km)

Metar:
EBBR 152320Z 03003KT CAVOK 02/M02 Q1029 NOSIG

Zeit: 2021-04-16 01:20 CEST